Time;durP1;ratioP1;P1;durP2;ratioP2;P2;SDS_P1;SDS_P2;PMS_P1;PMS_P2;Temp;Humidity;BMP_temperature;BMP_pressure;BME280_temperature;BME280_humidity;BME280_pressure;Samples;Min_cycle;Max_cycle;Signal;HPM_P1;HPM_P2
2023/03/05 00:00:08;;;;;;;3.15;2.78;;;;;;;;;;5048583;28;20056;-66
2023/03/05 00:02:36;;;;;;;4.30;2.40;;;;;;;;;;5049381;28;20512;-67
2023/03/05 00:05:05;;;;;;;8.07;3.15;;;;;;;;;;5045842;28;20053;-66
2023/03/05 00:07:33;;;;;;;7.53;3.80;;;;;;;;;;5039400;28;20048;-65
2023/03/05 00:10:02;;;;;;;18.27;4.05;;;;;;;;;;5047689;28;20517;-66
2023/03/05 00:12:32;;;;;;;3.83;2.20;;;;;;;;;;5050796;28;20513;-65
2023/03/05 00:15:00;;;;;;;5.82;2.22;;;;;;;;;;5042238;28;20077;-66
2023/03/05 00:17:29;;;;;;;7.57;3.35;;;;;;;;;;5044915;28;20056;-66
2023/03/05 00:19:59;;;;;;;7.72;4.65;;;;;;;;;;5048340;28;20068;-67
2023/03/05 00:22:29;;;;;;;4.57;2.15;;;;;;;;;;5046089;28;20057;-66
2023/03/05 00:24:57;;;;;;;16.95;4.13;;;;;;;;;;5039765;28;20530;-64
2023/03/05 00:27:26;;;;;;;11.38;2.58;;;;;;;;;;5050202;28;20045;-66
2023/03/05 00:29:55;;;;;;;5.57;3.25;;;;;;;;;;5040426;28;20046;-67
2023/03/05 00:32:24;;;;;;;3.88;2.97;;;;;;;;;;5054023;28;20060;-68
2023/03/05 00:34:52;;;;;;;7.40;3.50;;;;;;;;;;5047315;28;20514;-67
2023/03/05 00:37:20;;;;;;;6.30;2.65;;;;;;;;;;5048425;28;20462;-65
2023/03/05 00:39:48;;;;;;;8.73;3.08;;;;;;;;;;5052455;28;20051;-66
2023/03/05 00:42:17;;;;;;;3.75;3.17;;;;;;;;;;5043784;28;20076;-65
2023/03/05 00:44:45;;;;;;;7.60;2.17;;;;;;;;;;5052569;28;20049;-66
2023/03/05 00:47:17;;;;;;;4.20;2.60;;;;;;;;;;5042988;28;20049;-67
2023/03/05 00:49:45;;;;;;;4.40;2.45;;;;;;;;;;5034353;28;20466;-66
2023/03/05 00:52:14;;;;;;;7.88;4.30;;;;;;;;;;5048385;28;20060;-66
2023/03/05 00:54:42;;;;;;;3.17;2.13;;;;;;;;;;5050098;28;20045;-65
2023/03/05 00:57:10;;;;;;;6.07;4.53;;;;;;;;;;5045789;28;20052;-66
2023/03/05 00:59:38;;;;;;;4.00;2.85;;;;;;;;;;5040292;28;20041;-65
2023/03/05 01:02:07;;;;;;;3.88;2.10;;;;;;;;;;5048759;28;20262;-65
2023/03/05 01:04:37;;;;;;;10.68;2.70;;;;;;;;;;5046301;28;20275;-65
2023/03/05 01:07:05;;;;;;;7.05;2.10;;;;;;;;;;5046151;28;20048;-66
2023/03/05 01:09:33;;;;;;;16.48;4.35;;;;;;;;;;5043699;28;20436;-66
2023/03/05 01:12:01;;;;;;;5.78;1.77;;;;;;;;;;5044225;28;20049;-67
2023/03/05 01:14:30;;;;;;;8.07;4.20;;;;;;;;;;5047461;28;20041;-65
2023/03/05 01:16:58;;;;;;;6.45;2.75;;;;;;;;;;5047254;28;20057;-65
2023/03/05 01:19:26;;;;;;;7.32;3.72;;;;;;;;;;5057908;28;21582;-65
2023/03/05 01:21:56;;;;;;;8.65;2.70;;;;;;;;;;5051355;28;20045;-65
2023/03/05 01:24:24;;;;;;;9.43;2.78;;;;;;;;;;5041820;28;20071;-65
2023/03/05 01:26:52;;;;;;;2.47;1.73;;;;;;;;;;5049505;28;20052;-65
2023/03/05 01:29:21;;;;;;;11.77;4.13;;;;;;;;;;5049694;28;20120;-65
2023/03/05 01:31:49;;;;;;;2.17;2.05;;;;;;;;;;5059785;28;20045;-66
2023/03/05 01:34:17;;;;;;;5.40;2.55;;;;;;;;;;5044086;28;20086;-64
2023/03/05 01:36:46;;;;;;;6.40;2.08;;;;;;;;;;5044572;28;20478;-64
2023/03/05 01:39:15;;;;;;;4.75;3.17;;;;;;;;;;5043332;28;20059;-66
2023/03/05 01:41:43;;;;;;;3.78;2.67;;;;;;;;;;5045063;28;20049;-66
2023/03/05 01:44:21;;;;;;;5.38;2.80;;;;;;;;;;5058566;28;20057;-65
2023/03/05 01:46:49;;;;;;;4.13;3.55;;;;;;;;;;5048818;28;20044;-66
2023/03/05 01:49:20;;;;;;;4.20;2.90;;;;;;;;;;5047953;28;20098;-65
2023/03/05 01:51:52;;;;;;;8.75;3.38;;;;;;;;;;5038261;28;20084;-65
2023/03/05 01:54:25;;;;;;;7.07;3.67;;;;;;;;;;5046300;28;20059;-64
2023/03/05 01:56:56;;;;;;;7.90;2.45;;;;;;;;;;5038110;28;20049;-65
2023/03/05 01:59:25;;;;;;;4.53;2.50;;;;;;;;;;5049219;28;20068;-65
2023/03/05 02:01:55;;;;;;;2.13;1.92;;;;;;;;;;5058206;28;20459;-66
2023/03/05 02:04:27;;;;;;;10.02;3.55;;;;;;;;;;5043384;28;20065;-65
2023/03/05 02:06:56;;;;;;;5.18;2.33;;;;;;;;;;5046211;28;20051;-65
2023/03/05 02:09:27;;;;;;;6.72;3.15;;;;;;;;;;5044370;28;20053;-66
2023/03/05 02:11:56;;;;;;;6.13;3.45;;;;;;;;;;5047294;28;20150;-65
2023/03/05 02:14:25;;;;;;;10.48;3.38;;;;;;;;;;5044632;28;20041;-65
2023/03/05 02:16:53;;;;;;;7.75;2.65;;;;;;;;;;5052763;28;20052;-67
2023/03/05 02:19:21;;;;;;;11.05;2.90;;;;;;;;;;5038326;28;20441;-65
2023/03/05 02:21:51;;;;;;;13.82;3.95;;;;;;;;;;5049720;28;20056;-66
2023/03/05 02:24:32;;;;;;;4.85;3.45;;;;;;;;;;5047848;28;20049;-65
2023/03/05 02:27:01;;;;;;;3.67;2.40;;;;;;;;;;5051494;28;20044;-65
2023/03/05 02:29:30;;;;;;;4.10;2.15;;;;;;;;;;5048741;28;20053;-65
2023/03/05 02:31:58;;;;;;;6.68;3.13;;;;;;;;;;5049784;28;20060;-65
2023/03/05 02:34:27;;;;;;;6.20;2.33;;;;;;;;;;5039060;28;20045;-66
2023/03/05 02:36:57;;;;;;;2.65;2.40;;;;;;;;;;5047426;28;20048;-65
2023/03/05 02:39:25;;;;;;;18.17;3.25;;;;;;;;;;5051719;28;20164;-66
2023/03/05 02:41:54;;;;;;;13.07;4.05;;;;;;;;;;5047088;28;20048;-65
2023/03/05 02:44:22;;;;;;;11.80;3.88;;;;;;;;;;5040500;28;20417;-65
2023/03/05 02:46:51;;;;;;;11.02;4.00;;;;;;;;;;5046339;28;20040;-65
2023/03/05 02:49:19;;;;;;;9.25;3.20;;;;;;;;;;5054277;28;20049;-65
2023/03/05 02:51:48;;;;;;;3.60;1.73;;;;;;;;;;5056951;28;20053;-65
2023/03/05 02:54:17;;;;;;;6.47;3.50;;;;;;;;;;5036736;28;20055;-65
2023/03/05 02:56:46;;;;;;;7.07;3.88;;;;;;;;;;5048332;28;20040;-65
2023/03/05 02:59:14;;;;;;;6.35;2.33;;;;;;;;;;5038984;28;20383;-65
2023/03/05 03:01:42;;;;;;;5.75;3.35;;;;;;;;;;5055966;28;20049;-66
2023/03/05 03:04:10;;;;;;;6.43;3.42;;;;;;;;;;5039772;28;20047;-65
2023/03/05 03:06:39;;;;;;;4.15;1.35;;;;;;;;;;5036052;28;20075;-65
2023/03/05 03:09:07;;;;;;;11.07;3.90;;;;;;;;;;5045383;28;20490;-66
2023/03/05 03:11:36;;;;;;;7.93;3.80;;;;;;;;;;5047367;28;20056;-64
2023/03/05 03:14:05;;;;;;;10.48;4.22;;;;;;;;;;5047843;28;20204;-66
2023/03/05 03:16:34;;;;;;;6.68;3.53;;;;;;;;;;5040368;28;20049;-66
2023/03/05 03:19:02;;;;;;;2.80;2.25;;;;;;;;;;5038758;28;20502;-65
2023/03/05 03:21:31;;;;;;;5.13;3.05;;;;;;;;;;5034171;28;20049;-65
2023/03/05 03:23:59;;;;;;;7.55;3.47;;;;;;;;;;5043311;28;20517;-65
2023/03/05 03:26:27;;;;;;;5.82;2.20;;;;;;;;;;5044864;28;20691;-64
2023/03/05 03:28:57;;;;;;;6.03;4.10;;;;;;;;;;5041355;28;20045;-65
2023/03/05 03:31:25;;;;;;;1.83;1.65;;;;;;;;;;5041481;28;20505;-65
2023/03/05 03:33:54;;;;;;;3.70;2.65;;;;;;;;;;5035054;28;20053;-66
2023/03/05 03:36:22;;;;;;;4.32;2.40;;;;;;;;;;5046651;28;20041;-64
2023/03/05 03:38:50;;;;;;;12.30;3.88;;;;;;;;;;5046889;28;20555;-65
2023/03/05 03:41:18;;;;;;;9.73;3.30;;;;;;;;;;5039296;28;20761;-65
2023/03/05 03:43:47;;;;;;;7.32;2.03;;;;;;;;;;5051997;28;20140;-65
2023/03/05 03:46:16;;;;;;;1.80;1.65;;;;;;;;;;5054150;28;20131;-66
2023/03/05 03:48:45;;;;;;;4.07;1.85;;;;;;;;;;5064347;28;20076;-67
2023/03/05 03:51:13;;;;;;;3.70;2.60;;;;;;;;;;5066812;28;20075;-65
2023/03/05 03:53:41;;;;;;;2.47;1.52;;;;;;;;;;5063068;28;20060;-65
2023/03/05 03:56:09;;;;;;;4.43;1.85;;;;;;;;;;5062676;28;20101;-66
2023/03/05 03:58:38;;;;;;;5.95;2.50;;;;;;;;;;5037593;28;20053;-65
2023/03/05 04:01:06;;;;;;;4.72;3.00;;;;;;;;;;5041275;28;20045;-65
2023/03/05 04:03:35;;;;;;;11.63;4.53;;;;;;;;;;5045413;28;20153;-65
2023/03/05 04:06:04;;;;;;;6.10;3.17;;;;;;;;;;5044233;28;20053;-65
2023/03/05 04:08:32;;;;;;;9.65;2.67;;;;;;;;;;5048281;28;20041;-65
2023/03/05 04:11:01;;;;;;;7.70;2.13;;;;;;;;;;5043313;28;20045;-66
2023/03/05 04:13:29;;;;;;;6.22;3.83;;;;;;;;;;5038462;28;20047;-65
2023/03/05 04:15:57;;;;;;;5.15;3.55;;;;;;;;;;5050084;28;20060;-65
2023/03/05 04:18:26;;;;;;;3.70;2.67;;;;;;;;;;5043630;28;20057;-66
2023/03/05 04:20:55;;;;;;;9.73;1.98;;;;;;;;;;5045899;28;20052;-66
2023/03/05 04:23:24;;;;;;;8.25;2.83;;;;;;;;;;5044405;28;20064;-65
2023/03/05 04:25:52;;;;;;;17.20;4.40;;;;;;;;;;5041286;28;20045;-64
2023/03/05 04:28:20;;;;;;;7.15;3.17;;;;;;;;;;5042451;28;20049;-67
2023/03/05 04:30:48;;;;;;;8.13;2.75;;;;;;;;;;5041113;28;20481;-65
2023/03/05 04:33:17;;;;;;;14.98;2.53;;;;;;;;;;5050687;28;20048;-65
2023/03/05 04:35:45;;;;;;;3.42;2.85;;;;;;;;;;5045949;28;20052;-66
2023/03/05 04:38:15;;;;;;;7.60;2.53;;;;;;;;;;5047613;28;20049;-66
2023/03/05 04:40:43;;;;;;;5.47;2.45;;;;;;;;;;5039668;28;20378;-65
2023/03/05 04:43:11;;;;;;;14.13;3.28;;;;;;;;;;5048301;28;20054;-65
2023/03/05 04:45:40;;;;;;;5.20;3.70;;;;;;;;;;5050869;28;20060;-65
2023/03/05 04:48:09;;;;;;;5.38;3.03;;;;;;;;;;5041975;28;20037;-65
2023/03/05 04:50:37;;;;;;;9.90;2.20;;;;;;;;;;5051122;28;20395;-66
2023/03/05 04:53:05;;;;;;;1.83;1.73;;;;;;;;;;5061980;28;20044;-65
2023/03/05 04:55:35;;;;;;;3.88;2.97;;;;;;;;;;5052250;28;20063;-65
2023/03/05 04:58:03;;;;;;;5.70;2.75;;;;;;;;;;5043513;28;20057;-65
2023/03/05 05:00:31;;;;;;;18.92;3.00;;;;;;;;;;5048086;28;20065;-64
2023/03/05 05:03:00;;;;;;;11.82;2.80;;;;;;;;;;5051094;28;20048;-65
2023/03/05 05:05:29;;;;;;;9.48;2.90;;;;;;;;;;5043701;28;20144;-66
2023/03/05 05:07:57;;;;;;;3.72;2.88;;;;;;;;;;5044118;28;20057;-65
2023/03/05 05:10:26;;;;;;;11.13;3.22;;;;;;;;;;5051852;28;20133;-66
2023/03/05 05:12:56;;;;;;;2.45;1.55;;;;;;;;;;5046255;28;20045;-65
2023/03/05 05:15:25;;;;;;;10.30;3.00;;;;;;;;;;5045052;28;20057;-65
2023/03/05 05:17:54;;;;;;;9.43;4.07;;;;;;;;;;5050431;28;20413;-65
2023/03/05 05:20:22;;;;;;;5.25;2.75;;;;;;;;;;5040630;28;20103;-65
2023/03/05 05:22:51;;;;;;;2.90;2.47;;;;;;;;;;5049896;28;20505;-65
2023/03/05 05:25:20;;;;;;;5.68;1.70;;;;;;;;;;5048993;28;20041;-64
2023/03/05 05:27:48;;;;;;;5.07;2.85;;;;;;;;;;5047627;28;20435;-65
2023/03/05 05:30:18;;;;;;;3.67;2.72;;;;;;;;;;5047984;28;20051;-64
2023/03/05 05:32:46;;;;;;;3.42;3.13;;;;;;;;;;5057765;28;20076;-65
2023/03/05 05:35:15;;;;;;;3.63;1.58;;;;;;;;;;5048017;28;20045;-65
2023/03/05 05:37:44;;;;;;;5.15;2.08;;;;;;;;;;5049792;28;20048;-65
2023/03/05 05:40:13;;;;;;;7.53;3.13;;;;;;;;;;5052679;28;20053;-65
2023/03/05 05:42:41;;;;;;;4.82;2.47;;;;;;;;;;5052759;28;20048;-65
2023/03/05 05:45:10;;;;;;;4.90;2.28;;;;;;;;;;5046033;28;20048;-65
2023/03/05 05:47:40;;;;;;;4.93;1.27;;;;;;;;;;5056927;28;20112;-65
2023/03/05 05:50:09;;;;;;;8.55;3.75;;;;;;;;;;5040660;28;20429;-65
2023/03/05 05:52:37;;;;;;;10.45;3.55;;;;;;;;;;5043353;28;20136;-66
2023/03/05 05:55:06;;;;;;;3.22;2.25;;;;;;;;;;5046462;28;20136;-66
2023/03/05 05:57:35;;;;;;;6.40;2.78;;;;;;;;;;5049280;28;20052;-65
2023/03/05 06:00:04;;;;;;;3.15;1.60;;;;;;;;;;5039758;28;20051;-66
2023/03/05 06:02:33;;;;;;;18.40;3.10;;;;;;;;;;5045216;28;20051;-65
2023/03/05 06:05:03;;;;;;;9.95;3.15;;;;;;;;;;5047011;28;20057;-65
2023/03/05 06:07:31;;;;;;;1.75;1.52;;;;;;;;;;5052206;28;20053;-67
2023/03/05 06:10:00;;;;;;;3.58;2.35;;;;;;;;;;5044719;28;20052;-64
2023/03/05 06:12:28;;;;;;;4.50;2.30;;;;;;;;;;5038304;28;20409;-65
2023/03/05 06:14:57;;;;;;;3.78;2.60;;;;;;;;;;5042992;28;20056;-65
2023/03/05 06:17:26;;;;;;;5.95;2.78;;;;;;;;;;5037148;28;20140;-63
2023/03/05 06:19:58;;;;;;;6.15;3.13;;;;;;;;;;5034458;28;20398;-64
2023/03/05 06:22:28;;;;;;;14.02;3.83;;;;;;;;;;5042525;28;20156;-64
2023/03/05 06:24:57;;;;;;;9.85;2.47;;;;;;;;;;5035533;28;20458;-65
2023/03/05 06:27:25;;;;;;;10.65;3.08;;;;;;;;;;5045387;28;20132;-63
2023/03/05 06:29:55;;;;;;;11.32;2.75;;;;;;;;;;5045800;28;20497;-64
2023/03/05 06:32:23;;;;;;;11.85;4.43;;;;;;;;;;5041963;28;20061;-64
2023/03/05 06:34:52;;;;;;;3.05;2.08;;;;;;;;;;5029245;28;20057;-64
2023/03/05 06:37:20;;;;;;;8.80;2.60;;;;;;;;;;5045457;28;20056;-64
2023/03/05 06:39:50;;;;;;;9.23;4.05;;;;;;;;;;5031554;28;20514;-64
2023/03/05 06:42:18;;;;;;;7.20;2.92;;;;;;;;;;5036304;28;20465;-63
2023/03/05 06:44:46;;;;;;;6.00;3.08;;;;;;;;;;5038052;28;20071;-64
2023/03/05 06:47:15;;;;;;;3.53;3.00;;;;;;;;;;5034438;28;20410;-64
2023/03/05 06:49:43;;;;;;;2.90;2.38;;;;;;;;;;5031967;28;20049;-64
2023/03/05 06:52:12;;;;;;;3.90;1.92;;;;;;;;;;5040442;28;20053;-64
2023/03/05 06:54:40;;;;;;;6.70;4.10;;;;;;;;;;5032537;28;20080;-63
2023/03/05 06:57:10;;;;;;;3.85;2.70;;;;;;;;;;5045329;28;20513;-64
2023/03/05 06:59:39;;;;;;;7.10;3.05;;;;;;;;;;5038649;28;20413;-64
2023/03/05 07:02:10;;;;;;;18.92;3.78;;;;;;;;;;5035941;28;20063;-64
2023/03/05 07:04:38;;;;;;;3.72;2.10;;;;;;;;;;5039542;28;20454;-64
2023/03/05 07:07:07;;;;;;;4.00;2.60;;;;;;;;;;5042216;28;20401;-63
2023/03/05 07:09:41;;;;;;;5.28;4.05;;;;;;;;;;5042952;28;20131;-64
2023/03/05 07:12:11;;;;;;;5.22;2.08;;;;;;;;;;5041655;28;20052;-63
2023/03/05 07:14:40;;;;;;;7.63;1.38;;;;;;;;;;5038434;28;20084;-63
2023/03/05 07:17:09;;;;;;;2.17;1.20;;;;;;;;;;5039768;28;20049;-64
2023/03/05 07:19:38;;;;;;;10.40;3.08;;;;;;;;;;5045815;28;20324;-63
2023/03/05 07:22:07;;;;;;;3.92;1.90;;;;;;;;;;5058509;28;20457;-64
2023/03/05 07:24:36;;;;;;;12.48;3.28;;;;;;;;;;5044811;28;20072;-64
2023/03/05 07:27:04;;;;;;;2.35;1.92;;;;;;;;;;5033284;28;20045;-64
2023/03/05 07:29:34;;;;;;;3.42;2.33;;;;;;;;;;5040382;28;20545;-66
2023/03/05 07:32:02;;;;;;;2.72;2.30;;;;;;;;;;5042533;28;20089;-65
2023/03/05 07:34:31;;;;;;;7.18;3.08;;;;;;;;;;5042888;28;20088;-64
2023/03/05 07:36:59;;;;;;;3.85;1.77;;;;;;;;;;5040772;28;20061;-64
2023/03/05 07:39:27;;;;;;;7.25;2.58;;;;;;;;;;5043069;28;20057;-65
2023/03/05 07:41:56;;;;;;;10.23;2.63;;;;;;;;;;5041624;28;20105;-65
2023/03/05 07:44:24;;;;;;;8.50;2.67;;;;;;;;;;5038755;28;20123;-63
2023/03/05 07:46:54;;;;;;;5.90;3.20;;;;;;;;;;5045108;28;20044;-64
2023/03/05 07:49:23;;;;;;;7.35;2.30;;;;;;;;;;5040851;28;20061;-65
2023/03/05 07:51:51;;;;;;;11.18;2.72;;;;;;;;;;5034493;28;20141;-64
2023/03/05 07:54:20;;;;;;;13.82;4.10;;;;;;;;;;5046150;28;20079;-64
2023/03/05 07:56:49;;;;;;;6.32;2.25;;;;;;;;;;5042244;28;20080;-65
2023/03/05 07:59:17;;;;;;;12.30;2.83;;;;;;;;;;5049486;28;20556;-63
2023/03/05 08:01:46;;;;;;;9.77;3.55;;;;;;;;;;5046651;28;20045;-64
2023/03/05 08:04:15;;;;;;;4.72;2.90;;;;;;;;;;5041529;28;20049;-68
2023/03/05 08:06:45;;;;;;;7.63;2.95;;;;;;;;;;5043180;28;20063;-64
2023/03/05 08:09:14;;;;;;;7.95;2.70;;;;;;;;;;5037524;28;20054;-64
2023/03/05 08:11:42;;;;;;;4.70;2.45;;;;;;;;;;5048227;28;20056;-63
2023/03/05 08:14:12;;;;;;;7.85;1.98;;;;;;;;;;5041631;28;20127;-64
2023/03/05 08:16:40;;;;;;;4.43;3.03;;;;;;;;;;5037680;28;20068;-64
2023/03/05 08:19:11;;;;;;;5.57;2.58;;;;;;;;;;5047814;28;20536;-64
2023/03/05 08:21:40;;;;;;;3.42;2.83;;;;;;;;;;5042721;28;20037;-66
2023/03/05 08:24:10;;;;;;;6.00;2.72;;;;;;;;;;5036461;28;20046;-65
2023/03/05 08:26:39;;;;;;;12.43;3.58;;;;;;;;;;5045367;28;20055;-64
2023/03/05 08:29:09;;;;;;;13.57;4.70;;;;;;;;;;5049287;28;20366;-67
2023/03/05 08:31:37;;;;;;;4.55;2.55;;;;;;;;;;5055619;28;20139;-69
2023/03/05 08:34:07;;;;;;;7.55;3.72;;;;;;;;;;5044276;28;20068;-66
2023/03/05 08:36:35;;;;;;;13.25;3.55;;;;;;;;;;5049830;28;20089;-69
2023/03/05 08:39:07;;;;;;;8.73;3.17;;;;;;;;;;5043079;28;20057;-65
2023/03/05 08:41:35;;;;;;;2.05;1.25;;;;;;;;;;5049921;28;20060;-65
2023/03/05 08:44:04;;;;;;;9.45;2.97;;;;;;;;;;5051717;28;20052;-64
2023/03/05 08:46:33;;;;;;;4.93;2.78;;;;;;;;;;5046495;28;20132;-64
2023/03/05 08:49:02;;;;;;;11.48;2.88;;;;;;;;;;5038080;28;20041;-64
2023/03/05 08:51:30;;;;;;;10.98;3.90;;;;;;;;;;5039547;28;20553;-65
2023/03/05 08:54:00;;;;;;;8.70;2.47;;;;;;;;;;5049394;28;20045;-66
2023/03/05 08:56:30;;;;;;;6.85;2.45;;;;;;;;;;5039720;28;20561;-64
2023/03/05 08:58:59;;;;;;;7.55;4.75;;;;;;;;;;5040983;28;20053;-64
2023/03/05 09:01:27;;;;;;;3.92;2.53;;;;;;;;;;5044660;28;20049;-64
2023/03/05 09:03:55;;;;;;;8.13;2.85;;;;;;;;;;5050195;28;20052;-66
2023/03/05 09:06:23;;;;;;;5.85;4.22;;;;;;;;;;5050450;28;20421;-66
2023/03/05 09:08:52;;;;;;;5.80;2.25;;;;;;;;;;5042135;28;20050;-65
2023/03/05 09:11:20;;;;;;;10.10;4.63;;;;;;;;;;5036574;28;20083;-65
2023/03/05 09:13:50;;;;;;;5.00;2.70;;;;;;;;;;5047305;28;20103;-64
2023/03/05 09:16:20;;;;;;;9.10;4.55;;;;;;;;;;5042377;28;20053;-64
2023/03/05 09:18:48;;;;;;;6.20;4.03;;;;;;;;;;5043292;28;20483;-65
2023/03/05 09:21:18;;;;;;;7.60;4.03;;;;;;;;;;5052289;28;20036;-64
2023/03/05 09:23:47;;;;;;;8.88;4.15;;;;;;;;;;5044083;28;20069;-65
2023/03/05 09:26:18;;;;;;;22.40;3.97;;;;;;;;;;5042364;28;20046;-65
2023/03/05 09:28:47;;;;;;;8.35;3.13;;;;;;;;;;5062412;28;20053;-65
2023/03/05 09:31:17;;;;;;;18.20;4.03;;;;;;;;;;5059838;28;20048;-65
2023/03/05 09:33:46;;;;;;;9.65;4.05;;;;;;;;;;5064695;28;20045;-64
2023/03/05 09:36:19;;;;;;;15.30;3.25;;;;;;;;;;5070943;28;20052;-65
2023/03/05 09:38:47;;;;;;;8.90;2.55;;;;;;;;;;5069307;28;20149;-66
2023/03/05 09:41:17;;;;;;;3.85;2.22;;;;;;;;;;5059460;28;20548;-64
2023/03/05 09:43:50;;;;;;;7.78;2.08;;;;;;;;;;5063836;28;20052;-64
2023/03/05 09:46:27;;;;;;;8.88;3.85;;;;;;;;;;5066895;28;20121;-64
2023/03/05 09:48:58;;;;;;;14.45;4.15;;;;;;;;;;5042935;28;20068;-63
2023/03/05 09:51:29;;;;;;;14.65;4.88;;;;;;;;;;5047207;28;20577;-63
2023/03/05 09:54:01;;;;;;;4.72;2.20;;;;;;;;;;5049463;28;20045;-64
2023/03/05 09:56:31;;;;;;;5.57;3.55;;;;;;;;;;5049131;28;20048;-65
2023/03/05 09:59:03;;;;;;;3.70;2.08;;;;;;;;;;5067891;28;20382;-63
2023/03/05 10:01:37;;;;;;;13.73;2.92;;;;;;;;;;5073130;28;20051;-63
2023/03/05 10:04:10;;;;;;;16.23;2.95;;;;;;;;;;5069053;28;20041;-63
2023/03/05 10:06:41;;;;;;;6.75;3.80;;;;;;;;;;5072876;28;20049;-63
2023/03/05 10:09:15;;;;;;;10.88;3.70;;;;;;;;;;5041556;28;20382;-63
2023/03/05 10:11:49;;;;;;;4.07;1.83;;;;;;;;;;5049349;28;20059;-63
2023/03/05 10:14:24;;;;;;;9.13;3.67;;;;;;;;;;5037278;28;20056;-63
2023/03/05 10:17:01;;;;;;;9.88;3.42;;;;;;;;;;5035032;28;20076;-63
2023/03/05 10:19:40;;;;;;;6.07;3.17;;;;;;;;;;5044284;28;20055;-63
2023/03/05 10:22:13;;;;;;;10.27;3.40;;;;;;;;;;5035696;28;20048;-63
2023/03/05 10:24:46;;;;;;;14.68;4.82;;;;;;;;;;5041287;28;20477;-65
2023/03/05 10:27:16;;;;;;;6.13;2.65;;;;;;;;;;5041727;28;20045;-63
2023/03/05 10:29:53;;;;;;;5.93;3.20;;;;;;;;;;5046105;28;20681;-63
2023/03/05 10:32:34;;;;;;;4.53;2.38;;;;;;;;;;5047317;28;20053;-63
2023/03/05 10:35:09;;;;;;;6.10;2.15;;;;;;;;;;5038240;28;20396;-67
2023/03/05 10:37:49;;;;;;;15.30;4.70;;;;;;;;;;5053305;28;20040;-64
2023/03/05 10:40:22;;;;;;;2.50;1.60;;;;;;;;;;5066581;28;20041;-64
2023/03/05 10:42:55;;;;;;;8.63;2.92;;;;;;;;;;5059366;28;20354;-63
2023/03/05 10:45:25;;;;;;;7.63;3.75;;;;;;;;;;5068769;28;20131;-64
2023/03/05 10:47:56;;;;;;;6.40;3.10;;;;;;;;;;5047988;28;20048;-65
2023/03/05 10:50:26;;;;;;;4.55;2.50;;;;;;;;;;5048061;28;20058;-64
2023/03/05 10:53:05;;;;;;;12.05;2.95;;;;;;;;;;5040210;28;20555;-63
2023/03/05 10:55:34;;;;;;;11.43;2.92;;;;;;;;;;5035156;28;20042;-64
2023/03/05 10:58:10;;;;;;;5.28;3.33;;;;;;;;;;5047296;28;20128;-63
2023/03/05 11:00:39;;;;;;;11.60;2.45;;;;;;;;;;5042975;28;20053;-67
2023/03/05 11:03:10;;;;;;;7.93;2.90;;;;;;;;;;5044093;28;20041;-64
2023/03/05 11:05:44;;;;;;;14.35;2.45;;;;;;;;;;5045501;28;20147;-65
2023/03/05 11:08:23;;;;;;;14.00;3.83;;;;;;;;;;5032996;28;20065;-64
2023/03/05 11:11:02;;;;;;;9.18;2.55;;;;;;;;;;5041873;28;20045;-64
2023/03/05 11:13:31;;;;;;;6.72;2.05;;;;;;;;;;5035780;28;20135;-65
2023/03/05 11:16:00;;;;;;;5.22;2.55;;;;;;;;;;5044201;28;20634;-64
2023/03/05 11:18:33;;;;;;;5.22;2.50;;;;;;;;;;5039439;28;20049;-65
2023/03/05 11:21:08;;;;;;;6.82;3.08;;;;;;;;;;5041605;28;20049;-64
2023/03/05 11:23:36;;;;;;;9.90;2.60;;;;;;;;;;5047045;28;20060;-64
2023/03/05 11:26:05;;;;;;;11.20;3.08;;;;;;;;;;5039016;28;20775;-64
2023/03/05 11:28:35;;;;;;;10.10;2.92;;;;;;;;;;5042230;28;20547;-64
2023/03/05 11:31:06;;;;;;;7.53;3.85;;;;;;;;;;5054311;28;20147;-65
2023/03/05 11:33:36;;;;;;;13.88;3.70;;;;;;;;;;5043523;28;20060;-64
2023/03/05 11:36:21;;;;;;;3.95;2.40;;;;;;;;;;5041388;28;20053;-64
2023/03/05 11:38:54;;;;;;;7.22;2.35;;;;;;;;;;5065220;28;20052;-65
2023/03/05 11:41:31;;;;;;;10.57;4.32;;;;;;;;;;5062640;28;20052;-65
2023/03/05 11:44:03;;;;;;;11.68;3.70;;;;;;;;;;5067426;28;20051;-65
2023/03/05 11:46:35;;;;;;;13.82;3.97;;;;;;;;;;5060641;28;20048;-63
2023/03/05 11:49:06;;;;;;;7.60;1.85;;;;;;;;;;5048412;28;20080;-64
2023/03/05 11:51:38;;;;;;;11.32;2.28;;;;;;;;;;5039780;28;20059;-64
2023/03/05 11:54:08;;;;;;;12.70;3.10;;;;;;;;;;5036912;28;20429;-64
2023/03/05 11:56:38;;;;;;;6.38;2.85;;;;;;;;;;5045446;28;20482;-63
2023/03/05 11:59:12;;;;;;;4.57;2.08;;;;;;;;;;5047467;28;20048;-67
2023/03/05 12:01:42;;;;;;;11.70;2.38;;;;;;;;;;5046305;28;20107;-63
2023/03/05 12:04:12;;;;;;;8.43;2.22;;;;;;;;;;5042401;28;20556;-65
2023/03/05 12:06:43;;;;;;;8.07;3.15;;;;;;;;;;5006445;28;20053;-67
2023/03/05 12:09:15;;;;;;;7.25;3.65;;;;;;;;;;5009146;28;20129;-65
2023/03/05 12:11:43;;;;;;;12.68;2.72;;;;;;;;;;4995600;28;20054;-64
2023/03/05 12:14:19;;;;;;;6.80;2.42;;;;;;;;;;5000340;28;20447;-65
2023/03/05 12:16:48;;;;;;;6.32;2.47;;;;;;;;;;5004736;28;20129;-66
2023/03/05 12:19:36;;;;;;;3.35;1.50;;;;;;;;;;5004238;28;20562;-64
2023/03/05 12:22:07;;;;;;;4.22;1.17;;;;;;;;;;4996437;28;20045;-65
2023/03/05 12:24:37;;;;;;;9.55;3.60;;;;;;;;;;5010635;28;20422;-63
2023/03/05 12:27:13;;;;;;;4.60;2.92;;;;;;;;;;5013663;28;20041;-64
2023/03/05 12:29:43;;;;;;;10.63;3.75;;;;;;;;;;5004187;28;20049;-64
2023/03/05 12:32:35;;;;;;;7.40;2.28;;;;;;;;;;5012661;28;20053;-64
2023/03/05 12:35:05;;;;;;;9.65;2.78;;;;;;;;;;4998844;28;20486;-65
2023/03/05 12:37:52;;;;;;;6.88;2.92;;;;;;;;;;4995877;28;20057;-64
2023/03/05 12:40:23;;;;;;;16.98;3.60;;;;;;;;;;5007621;28;20050;-64
2023/03/05 12:42:58;;;;;;;9.10;3.13;;;;;;;;;;5000256;28;20050;-62
2023/03/05 12:45:31;;;;;;;6.97;3.38;;;;;;;;;;5007508;28;20054;-64
2023/03/05 12:48:19;;;;;;;7.68;2.00;;;;;;;;;;5008157;28;20054;-67
2023/03/05 12:50:48;;;;;;;5.65;2.15;;;;;;;;;;4998316;28;20058;-64
2023/03/05 12:53:18;;;;;;;9.00;2.88;;;;;;;;;;5000332;28;20077;-66
2023/03/05 12:55:55;;;;;;;7.90;2.88;;;;;;;;;;4998935;28;20627;-68
2023/03/05 12:58:28;;;;;;;5.78;2.80;;;;;;;;;;5006082;28;20053;-67
2023/03/05 13:01:00;;;;;;;7.60;2.60;;;;;;;;;;5004076;28;20043;-66
2023/03/05 13:03:31;;;;;;;4.47;3.10;;;;;;;;;;5012312;28;20049;-66
2023/03/05 13:06:02;;;;;;;6.80;2.42;;;;;;;;;;5029125;28;20061;-67
2023/03/05 13:08:34;;;;;;;8.77;3.05;;;;;;;;;;5055711;28;20075;-66
2023/03/05 13:11:05;;;;;;;6.85;1.90;;;;;;;;;;5046480;28;20138;-67
2023/03/05 13:13:35;;;;;;;7.75;2.60;;;;;;;;;;5042037;28;20052;-67
2023/03/05 13:16:04;;;;;;;4.60;1.48;;;;;;;;;;5042585;28;20053;-66
2023/03/05 13:18:33;;;;;;;6.03;3.65;;;;;;;;;;5052723;28;20057;-67
2023/03/05 13:21:03;;;;;;;12.25;2.45;;;;;;;;;;5048160;28;20462;-66
2023/03/05 13:23:32;;;;;;;8.10;3.55;;;;;;;;;;5049042;28;20049;-68
2023/03/05 13:26:02;;;;;;;8.27;2.80;;;;;;;;;;5050907;28;20127;-66
2023/03/05 13:28:33;;;;;;;8.80;3.95;;;;;;;;;;5039120;28;20061;-67
2023/03/05 13:31:02;;;;;;;6.88;2.03;;;;;;;;;;5054043;28;20049;-66
2023/03/05 13:33:31;;;;;;;8.40;2.15;;;;;;;;;;5046786;28;20059;-66
2023/03/05 13:36:00;;;;;;;7.65;2.00;;;;;;;;;;5046508;28;20045;-67
2023/03/05 13:38:31;;;;;;;7.55;2.85;;;;;;;;;;5044677;28;20505;-67
2023/03/05 13:41:05;;;;;;;3.22;2.42;;;;;;;;;;5047097;28;20075;-67
2023/03/05 13:43:35;;;;;;;12.40;2.88;;;;;;;;;;5042013;28;20521;-68
2023/03/05 13:46:03;;;;;;;5.10;2.50;;;;;;;;;;5051742;28;20145;-67
2023/03/05 13:48:32;;;;;;;8.75;2.63;;;;;;;;;;5049341;28;20139;-67
2023/03/05 13:51:05;;;;;;;13.63;2.30;;;;;;;;;;5043378;28;20045;-67
2023/03/05 13:53:34;;;;;;;6.85;2.80;;;;;;;;;;5046762;28;20045;-67
2023/03/05 13:56:03;;;;;;;5.32;2.55;;;;;;;;;;5050697;28;20509;-67
2023/03/05 13:58:46;;;;;;;5.35;2.38;;;;;;;;;;5045468;28;20140;-67
2023/03/05 14:01:16;;;;;;;4.75;2.33;;;;;;;;;;5046076;28;20055;-67
2023/03/05 14:03:46;;;;;;;17.98;3.15;;;;;;;;;;5043536;28;20098;-67
2023/03/05 14:06:18;;;;;;;6.47;2.78;;;;;;;;;;5050226;28;20049;-67
2023/03/05 14:08:49;;;;;;;7.07;3.22;;;;;;;;;;5053781;28;20059;-69
2023/03/05 14:11:19;;;;;;;5.45;2.53;;;;;;;;;;5053707;28;20053;-67
2023/03/05 14:13:49;;;;;;;8.75;3.00;;;;;;;;;;5053932;28;20465;-67
2023/03/05 14:16:24;;;;;;;7.15;2.72;;;;;;;;;;5051200;28;20044;-68
2023/03/05 14:18:54;;;;;;;14.05;2.03;;;;;;;;;;5077598;28;20057;-68
2023/03/05 14:21:23;;;;;;;2.72;1.90;;;;;;;;;;5067275;28;20045;-68
2023/03/05 14:23:53;;;;;;;2.35;2.15;;;;;;;;;;5066787;28;20051;-67
2023/03/05 14:26:27;;;;;;;9.10;3.28;;;;;;;;;;5062594;28;20045;-68
2023/03/05 14:28:59;;;;;;;4.85;2.13;;;;;;;;;;5050434;28;20045;-68
2023/03/05 14:31:28;;;;;;;10.35;3.42;;;;;;;;;;5048737;28;20045;-69
2023/03/05 14:34:01;;;;;;;4.57;1.98;;;;;;;;;;5048338;28;20128;-67
2023/03/05 14:36:31;;;;;;;10.43;2.75;;;;;;;;;;5045298;28;20048;-67
2023/03/05 14:39:00;;;;;;;6.28;2.50;;;;;;;;;;5044223;28;20048;-67
2023/03/05 14:41:37;;;;;;;2.92;2.40;;;;;;;;;;5037713;28;20063;-66
2023/03/05 14:44:15;;;;;;;5.60;2.70;;;;;;;;;;5042412;28;20080;-66
2023/03/05 14:46:44;;;;;;;2.78;1.70;;;;;;;;;;5047413;28;20499;-67
2023/03/05 14:49:13;;;;;;;7.50;2.65;;;;;;;;;;5063250;28;20037;-66
2023/03/05 14:51:43;;;;;;;3.10;1.77;;;;;;;;;;5052376;28;20060;-67
2023/03/05 14:54:22;;;;;;;4.85;2.90;;;;;;;;;;5055681;28;20048;-67
2023/03/05 14:56:50;;;;;;;3.90;1.90;;;;;;;;;;5060001;28;20122;-66